Isabella, Oklahoma
Current Conditions -  °F | °C
As of 8:58 PM on Monday 26 Jan 2015 (Local Time) from KEND Reporting Station
Clear Clear  
Wind Chill: 50°   Ceiling: Unl
Heat Index: 50°   Visibility: 10mi
Dew Point: 34°   Wind: 7mph
Humidity: 53%   Direction: 330°NNW
Pressure: 30.06"   Gusts: NA
Location:  36.24°N, 98.34°W
Report Text: KEND 270258Z AUTO 33006KT 10SM CLR 10/01 A3006 RMK AO2 SLP185 T01020011 52009 $
Loading
Personal Weather Stations






























Interactive Weather Map New forecast layout! Learn more

10-Day Weather Forecast

Advertisements
Track Severe Weather on mobile